createdAt,value
2019-03-05T00:02:15.937Z,98941.87
2019-03-05T00:04:45.256Z,98949.65
2019-03-05T00:07:14.597Z,98944.69
2019-03-05T00:09:44.211Z,98945.83
2019-03-05T00:12:13.934Z,98947.50
2019-03-05T00:14:43.499Z,98944.98
2019-03-05T00:17:13.098Z,98953.95
2019-03-05T00:19:42.383Z,98946.49
2019-03-05T00:22:11.700Z,98952.77
2019-03-05T00:25:03.877Z,98957.42
2019-03-05T00:27:35.718Z,98958.91
2019-03-05T00:30:26.472Z,98955.09
2019-03-05T00:33:18.784Z,98950.81
2019-03-05T00:36:04.211Z,98952.93
2019-03-05T00:39:04.982Z,98958.75
2019-03-05T00:41:51.257Z,98956.59
2019-03-05T00:45:14.703Z,98957.09
2019-03-05T00:47:48.890Z,98954.44
2019-03-05T00:50:34.851Z,98958.56
2019-03-05T00:53:20.673Z,98953.27
2019-03-05T00:55:58.227Z,98955.58
2019-03-05T00:58:35.119Z,98957.73
2019-03-05T01:01:27.401Z,98956.27
2019-03-05T01:04:22.211Z,98964.53
2019-03-05T01:06:51.803Z,98958.27
2019-03-05T01:09:21.688Z,98966.51
2019-03-05T01:11:51.306Z,98975.28
2019-03-05T01:14:22.037Z,98983.72
2019-03-05T01:16:51.839Z,98984.21
2019-03-05T01:19:21.409Z,98986.05
2019-03-05T01:21:50.722Z,98983.06
2019-03-05T01:24:20.332Z,98982.08
2019-03-05T01:26:49.901Z,98985.70
2019-03-05T01:29:19.504Z,98961.91
2019-03-05T01:31:57.590Z,98980.08
2019-03-05T01:34:31.532Z,98979.44
2019-03-05T01:37:02.493Z,98980.23
2019-03-05T01:39:33.717Z,98974.15
2019-03-05T01:42:03.492Z,98989.49
2019-03-05T01:44:33.179Z,98980.09
2019-03-05T01:47:02.771Z,98984.38
2019-03-05T01:49:32.416Z,98982.71
2019-03-05T01:52:01.740Z,98985.70
2019-03-05T01:54:31.086Z,98986.05
2019-03-05T01:57:00.382Z,98986.20
2019-03-05T01:59:29.963Z,98991.84
2019-03-05T02:01:59.284Z,98987.03
2019-03-05T02:04:28.568Z,98996.78
2019-03-05T02:06:58.176Z,98981.72
2019-03-05T02:09:27.745Z,98988.16
2019-03-05T02:11:57.055Z,98970.79
2019-03-05T02:14:26.371Z,98972.45
2019-03-05T02:16:55.952Z,98975.41
2019-03-05T02:19:42.997Z,98979.38
2019-03-05T02:22:29.487Z,98972.45
2019-03-05T02:25:24.738Z,98968.28
2019-03-05T02:28:34.670Z,98969.80
2019-03-05T02:31:17.418Z,98977.05
2019-03-05T02:34:18.310Z,98972.22
2019-03-05T02:37:19.417Z,98972.57
2019-03-05T02:40:10.100Z,98975.69
2019-03-05T02:42:58.969Z,98966.76
2019-03-05T02:45:44.992Z,98980.47
2019-03-05T02:48:37.041Z,98970.98
2019-03-05T02:51:36.292Z,98979.27
2019-03-05T02:54:37.529Z,98967.17
2019-03-05T02:57:08.444Z,98974.13
2019-03-05T02:59:38.150Z,98975.96
2019-03-05T03:02:15.432Z,98970.81
2019-03-05T03:04:46.368Z,98983.69
2019-03-05T03:07:15.952Z,98986.98
2019-03-05T03:09:52.690Z,98977.52
2019-03-05T03:12:22.023Z,98980.67
2019-03-05T03:14:51.619Z,98991.11
2019-03-05T03:17:20.923Z,98992.77
2019-03-05T03:19:50.254Z,98986.94
2019-03-05T03:22:19.837Z,98993.58
2019-03-05T03:24:49.343Z,98976.71
2019-03-05T03:27:18.646Z,99007.45
2019-03-05T03:29:48.031Z,98990.72
2019-03-05T03:32:17.352Z,99003.80
2019-03-05T03:34:46.965Z,99004.32
2019-03-05T03:37:16.277Z,98996.70
2019-03-05T03:39:45.612Z,98996.39
2019-03-05T03:42:14.953Z,98999.03
2019-03-05T03:44:44.268Z,99003.52
2019-03-05T03:47:13.602Z,99006.66
2019-03-05T03:49:43.185Z,99007.67
2019-03-05T03:52:12.520Z,99006.14
2019-03-05T03:54:41.812Z,99003.86
2019-03-05T03:57:11.152Z,99009.31
2019-03-05T03:59:40.493Z,98997.11
2019-03-05T04:02:10.099Z,98998.75
2019-03-05T04:04:40.144Z,99013.81
2019-03-05T04:07:09.821Z,99008.38
2019-03-05T04:09:39.145Z,99006.41
2019-03-05T04:12:08.478Z,99012.70
2019-03-05T04:14:37.995Z,99001.62
2019-03-05T04:17:07.297Z,99007.06
2019-03-05T04:19:37.186Z,99005.59
2019-03-05T04:22:06.791Z,99016.67
2019-03-05T04:24:36.448Z,99013.70
2019-03-05T04:27:05.762Z,99012.36
2019-03-05T04:29:35.331Z,99030.42
2019-03-05T04:32:04.676Z,99026.28
2019-03-05T04:34:34.260Z,99024.13
2019-03-05T04:37:03.864Z,99030.25
2019-03-05T04:39:33.459Z,99030.05
2019-03-05T04:42:02.793Z,99035.53
2019-03-05T04:44:36.793Z,99036.19
2019-03-05T04:47:06.402Z,99036.19
2019-03-05T04:49:43.138Z,99045.80
2019-03-05T04:52:14.572Z,99037.86
2019-03-05T04:54:43.870Z,99041.02
2019-03-05T04:57:13.467Z,99051.45
2019-03-05T04:59:42.762Z,99049.13
2019-03-05T05:02:12.358Z,99044.16
2019-03-05T05:04:41.944Z,99034.91
2019-03-05T05:07:11.294Z,99041.88
2019-03-05T05:09:40.874Z,99041.04
2019-03-05T05:12:10.179Z,99046.19
2019-03-05T05:14:39.660Z,99050.98
2019-03-05T05:17:09.233Z,99047.33
2019-03-05T05:19:38.845Z,99051.64
2019-03-05T05:22:08.170Z,99054.96
2019-03-05T05:24:37.509Z,99050.81
2019-03-05T05:27:06.821Z,99059.77
2019-03-05T05:29:36.167Z,99051.31
2019-03-05T05:32:05.593Z,99059.58
2019-03-05T05:34:36.537Z,99054.77
2019-03-05T05:37:05.867Z,99050.80
2019-03-05T05:40:30.719Z,99047.02
2019-03-05T05:43:00.053Z,99064.73
2019-03-05T05:45:39.771Z,99045.52
2019-03-05T05:48:09.100Z,99045.02
2019-03-05T05:50:38.438Z,99056.60
2019-03-05T05:53:07.766Z,99063.89
2019-03-05T05:55:37.380Z,99069.83
2019-03-05T05:58:06.708Z,99067.86
2019-03-05T06:00:37.686Z,99089.53
2019-03-05T06:03:07.275Z,99087.53
2019-03-05T06:05:36.704Z,99081.09
2019-03-05T06:08:06.096Z,99090.17
2019-03-05T06:10:35.422Z,99093.50
2019-03-05T06:13:05.103Z,99085.56
2019-03-05T06:15:34.510Z,99100.61
2019-03-05T06:18:04.182Z,99094.33
2019-03-05T06:20:33.485Z,99094.33
2019-03-05T06:23:03.103Z,99095.81
2019-03-05T06:25:32.924Z,99107.92
2019-03-05T06:28:02.226Z,99105.42
2019-03-05T06:30:43.099Z,99110.23
2019-03-05T06:33:12.787Z,99106.73
2019-03-05T06:35:42.401Z,99106.73
2019-03-05T06:38:11.690Z,99095.83
2019-03-05T06:40:41.085Z,99107.09
2019-03-05T06:43:10.415Z,99109.87
2019-03-05T06:45:39.753Z,99108.71
2019-03-05T06:48:09.409Z,99111.35
2019-03-05T06:50:39.227Z,99113.01
2019-03-05T06:53:08.552Z,99107.70
2019-03-05T06:55:37.847Z,99102.76
2019-03-05T06:58:07.526Z,99104.40
2019-03-05T07:00:42.758Z,99122.41
2019-03-05T07:03:12.075Z,99100.08
2019-03-05T07:06:36.569Z,99095.72
2019-03-05T07:09:10.778Z,99094.97
2019-03-05T07:11:56.951Z,99124.16
2019-03-05T07:14:56.445Z,99074.17
2019-03-05T07:17:45.975Z,99066.87
2019-03-05T07:20:44.246Z,99108.03
2019-03-05T07:23:53.635Z,99079.06
2019-03-05T07:26:22.996Z,99125.45
2019-03-05T07:28:52.432Z,99121.05
2019-03-05T07:31:21.742Z,99130.00
2019-03-05T07:33:51.051Z,99132.36
2019-03-05T07:36:20.750Z,99133.55
2019-03-05T07:38:50.415Z,99141.82
2019-03-05T07:41:19.831Z,99144.80
2019-03-05T07:43:55.280Z,99145.96
2019-03-05T07:46:24.968Z,99157.70
2019-03-05T07:48:54.572Z,99162.50
2019-03-05T07:51:23.904Z,99162.68
2019-03-05T07:53:53.210Z,99153.20
2019-03-05T07:56:22.520Z,99159.66
2019-03-05T07:58:51.829Z,99162.44
2019-03-05T08:01:22.563Z,99177.17
2019-03-05T08:03:52.041Z,99174.19
2019-03-05T08:06:21.617Z,99190.26
2019-03-05T08:09:31.311Z,99179.77
2019-03-05T08:12:29.964Z,99186.16
2019-03-05T08:15:09.508Z,99194.39
2019-03-05T08:17:38.803Z,99200.55
2019-03-05T08:20:12.576Z,99210.50
2019-03-05T08:22:42.241Z,99213.16
2019-03-05T08:25:12.975Z,99207.05
2019-03-05T08:27:42.655Z,99226.41
2019-03-05T08:30:16.365Z,99224.27
2019-03-05T08:32:45.682Z,99223.64
2019-03-05T08:35:15.006Z,99234.92
2019-03-05T08:37:44.572Z,99254.33
2019-03-05T08:40:16.947Z,99245.39
2019-03-05T08:42:46.262Z,99245.34
2019-03-05T08:45:16.571Z,99260.41
2019-03-05T08:47:46.281Z,99266.83
2019-03-05T08:50:16.231Z,99250.41
2019-03-05T08:52:45.530Z,99257.49
2019-03-05T08:55:18.868Z,99257.94
2019-03-05T08:57:48.192Z,99271.10
2019-03-05T09:00:20.124Z,99259.16
2019-03-05T09:02:49.562Z,99266.27
2019-03-05T09:05:19.880Z,99264.09
2019-03-05T09:07:49.673Z,99264.42
2019-03-05T09:10:27.234Z,99258.27
2019-03-05T09:12:56.573Z,99271.13
2019-03-05T09:15:25.871Z,99275.61
2019-03-05T09:17:55.259Z,99284.32
2019-03-05T09:20:24.854Z,99277.25
2019-03-05T09:22:55.115Z,99291.00
2019-03-05T09:25:24.921Z,99267.59
2019-03-05T09:27:55.363Z,99283.75
2019-03-05T09:30:25.682Z,99274.00
2019-03-05T09:32:55.275Z,99278.29
2019-03-05T09:35:24.897Z,99279.39
2019-03-05T09:37:54.475Z,99286.80
2019-03-05T09:40:27.695Z,99292.05
2019-03-05T09:42:57.613Z,99298.34
2019-03-05T09:45:28.254Z,99299.59
2019-03-05T09:47:58.099Z,99298.86
2019-03-05T09:50:27.413Z,99293.73
2019-03-05T09:52:57.001Z,99300.26
2019-03-05T09:55:26.953Z,99297.55
2019-03-05T09:58:07.636Z,99298.92
2019-03-05T10:00:29.350Z,99301.48
2019-03-05T10:02:58.667Z,99307.23
2019-03-05T10:05:28.257Z,99307.20
2019-03-05T10:07:57.640Z,99302.63
2019-03-05T10:10:30.891Z,99303.19
2019-03-05T10:13:04.281Z,99319.07
2019-03-05T10:15:32.248Z,99313.22
2019-03-05T10:18:12.323Z,99313.66
2019-03-05T10:20:35.521Z,99323.45
2019-03-05T10:23:04.983Z,99308.55
2019-03-05T10:25:34.655Z,99308.53
2019-03-05T10:28:04.662Z,99303.55
2019-03-05T10:30:43.206Z,99306.55
2019-03-05T10:33:13.089Z,99296.88
2019-03-05T10:35:42.389Z,99296.75
2019-03-05T10:38:11.847Z,99301.05
2019-03-05T10:40:47.379Z,99300.09
2019-03-05T10:43:18.032Z,99296.98
2019-03-05T10:45:48.641Z,99298.90
2019-03-05T10:48:20.382Z,99286.91
2019-03-05T10:50:49.718Z,99299.87
2019-03-05T10:53:19.019Z,99293.00
2019-03-05T10:55:49.270Z,99297.13
2019-03-05T10:58:19.746Z,99299.62
2019-03-05T11:00:54.206Z,99301.41
2019-03-05T11:03:25.337Z,99298.31
2019-03-05T11:05:54.642Z,99314.45
2019-03-05T11:08:25.713Z,99303.29
2019-03-05T11:10:55.771Z,99298.64
2019-03-05T11:13:25.097Z,99296.31
2019-03-05T11:15:57.952Z,99291.91
2019-03-05T11:18:29.812Z,99286.41
2019-03-05T11:20:58.684Z,99286.16
2019-03-05T11:23:27.989Z,99279.75
2019-03-05T11:25:57.368Z,99273.50
2019-03-05T11:28:26.701Z,99273.33
2019-03-05T11:30:56.408Z,99279.56
2019-03-05T11:33:26.125Z,99273.45
2019-03-05T11:35:55.473Z,99275.73
2019-03-05T11:38:24.815Z,99272.80
2019-03-05T11:40:54.109Z,99266.66
2019-03-05T11:43:23.729Z,99286.86
2019-03-05T11:45:53.333Z,99291.00
2019-03-05T11:48:22.956Z,99286.28
2019-03-05T11:50:52.275Z,99284.98
2019-03-05T11:53:21.853Z,99286.28
2019-03-05T11:55:51.571Z,99288.84
2019-03-05T11:58:20.878Z,99299.36
2019-03-05T12:00:51.821Z,99270.16
2019-03-05T12:03:21.414Z,99285.55
2019-03-05T12:05:50.730Z,99282.56
2019-03-05T12:08:20.055Z,99297.58
2019-03-05T12:10:49.355Z,99289.49
2019-03-05T12:13:18.816Z,99296.09
2019-03-05T12:15:48.405Z,99314.05
2019-03-05T12:18:17.717Z,99263.47
2019-03-05T12:20:47.306Z,99324.80
2019-03-05T12:23:16.645Z,99352.22
2019-03-05T12:25:46.224Z,99340.49
2019-03-05T12:28:15.526Z,99358.75
2019-03-05T12:30:44.835Z,99373.96
2019-03-05T12:33:14.423Z,99381.47
2019-03-05T12:35:43.813Z,99378.05
2019-03-05T12:38:13.400Z,99379.29
2019-03-05T12:40:42.767Z,99381.83
2019-03-05T12:43:12.309Z,99388.17
2019-03-05T12:45:41.636Z,99375.01
2019-03-05T12:48:10.949Z,99365.66
2019-03-05T12:50:40.556Z,99376.41
2019-03-05T12:53:10.171Z,99372.59
2019-03-05T12:55:39.479Z,99375.16
2019-03-05T12:58:09.187Z,99359.47
2019-03-05T13:00:38.996Z,99373.06
2019-03-05T13:03:08.602Z,99379.41
2019-03-05T13:05:37.899Z,99386.11
2019-03-05T13:08:07.234Z,99396.49
2019-03-05T13:10:37.740Z,99390.54
2019-03-05T13:13:10.473Z,99407.30
2019-03-05T13:15:40.899Z,99404.30
2019-03-05T13:18:10.215Z,99394.16
2019-03-05T13:20:39.534Z,99390.89
2019-03-05T13:23:10.505Z,99409.02
2019-03-05T13:25:39.858Z,99406.05
2019-03-05T13:28:09.246Z,99397.45
2019-03-05T13:30:40.315Z,99398.84
2019-03-05T13:33:10.435Z,99392.59
2019-03-05T13:35:39.751Z,99395.31
2019-03-05T13:38:10.871Z,99393.52
2019-03-05T13:40:40.761Z,99391.25
2019-03-05T13:43:10.330Z,99384.09
2019-03-05T13:45:43.890Z,99372.25
2019-03-05T13:48:40.687Z,99389.81
2019-03-05T13:51:43.994Z,99391.69
2019-03-05T13:54:27.118Z,99384.91
2019-03-05T13:57:29.873Z,99387.02
2019-03-05T13:59:59.583Z,99390.73
2019-03-05T14:02:29.707Z,99389.61
2019-03-05T14:05:10.882Z,99386.85
2019-03-05T14:08:12.233Z,99388.42
2019-03-05T14:10:41.812Z,99392.66
2019-03-05T14:13:12.766Z,99391.09
2019-03-05T14:15:44.084Z,99392.92
2019-03-05T14:18:13.428Z,99386.53
2019-03-05T14:20:42.740Z,99388.85
2019-03-05T14:23:12.301Z,99382.23
2019-03-05T14:25:41.641Z,99382.59
2019-03-05T14:28:11.338Z,99390.66
2019-03-05T14:30:41.195Z,99390.77
2019-03-05T14:33:10.581Z,99392.39
2019-03-05T14:35:40.047Z,99396.20
2019-03-05T14:38:09.630Z,99395.20
2019-03-05T14:40:38.951Z,99393.89
2019-03-05T14:43:08.269Z,99398.25
2019-03-05T14:45:37.973Z,99401.52
2019-03-05T14:48:07.341Z,99380.09
2019-03-05T14:50:36.782Z,99413.06
2019-03-05T14:53:06.409Z,99426.50
2019-03-05T14:55:35.991Z,99424.85
2019-03-05T14:58:05.733Z,99428.70
2019-03-05T15:00:35.092Z,99426.83
2019-03-05T15:03:04.721Z,99436.22
2019-03-05T15:05:34.547Z,99434.04
2019-03-05T15:08:03.893Z,99441.66
2019-03-05T15:10:33.537Z,99437.97
2019-03-05T15:13:14.932Z,99436.18
2019-03-05T15:15:34.022Z,99438.89
2019-03-05T15:18:03.682Z,99440.93
2019-03-05T15:20:33.331Z,99443.61
2019-03-05T15:23:02.649Z,99441.45
2019-03-05T15:25:32.410Z,99443.45
2019-03-05T15:28:01.764Z,99444.02
2019-03-05T15:30:31.286Z,99447.53
2019-03-05T15:33:00.945Z,99444.16
2019-03-05T15:35:30.344Z,99446.20
2019-03-05T15:38:00.211Z,99439.53
2019-03-05T15:40:30.309Z,99432.11
2019-03-05T15:42:59.710Z,99435.07
2019-03-05T15:45:29.017Z,99431.28
2019-03-05T15:47:58.493Z,99432.97
2019-03-05T15:50:30.404Z,99437.77
2019-03-05T15:52:59.819Z,99435.61
2019-03-05T15:55:29.182Z,99435.89
2019-03-05T15:57:58.485Z,99446.14
2019-03-05T16:00:32.549Z,99450.09
2019-03-05T16:03:02.302Z,99452.86
2019-03-05T16:05:31.971Z,99426.48
2019-03-05T16:08:01.631Z,99454.16
2019-03-05T16:10:31.525Z,99450.38
2019-03-05T16:13:01.134Z,99463.58
2019-03-05T16:15:30.751Z,99463.11
2019-03-05T16:18:01.385Z,99456.61
2019-03-05T16:20:31.409Z,99465.61
2019-03-05T16:23:01.288Z,99461.44
2019-03-05T16:25:31.110Z,99475.33
2019-03-05T16:28:02.241Z,99468.87
2019-03-05T16:30:47.454Z,99474.95
2019-03-05T16:33:38.236Z,99474.50
2019-03-05T16:36:18.325Z,99477.84
2019-03-05T16:38:56.731Z,99476.84
2019-03-05T16:41:43.795Z,99485.63
2019-03-05T16:44:13.298Z,99490.47
2019-03-05T16:46:51.610Z,99495.03
2019-03-05T16:49:25.312Z,99499.06
2019-03-05T16:51:59.494Z,99499.19
2019-03-05T16:54:46.462Z,99499.61
2019-03-05T16:57:33.763Z,99503.34
2019-03-05T17:00:05.809Z,99506.53
2019-03-05T17:02:39.728Z,99512.41
2019-03-05T17:05:13.100Z,99515.91
2019-03-05T17:07:46.986Z,99524.41
2019-03-05T17:10:19.124Z,99526.33
2019-03-05T17:12:48.469Z,99537.35
2019-03-05T17:15:18.318Z,99537.64
2019-03-05T17:17:47.736Z,99550.76
2019-03-05T17:20:17.415Z,99558.07
2019-03-05T17:22:46.722Z,99566.22
2019-03-05T17:25:20.320Z,99571.39
2019-03-05T17:27:49.619Z,99576.14
2019-03-05T17:30:18.930Z,99590.39
2019-03-05T17:32:48.489Z,99592.15
2019-03-05T17:35:18.072Z,99593.34
2019-03-05T17:37:47.671Z,99600.59
2019-03-05T17:40:17.253Z,99607.25
2019-03-05T17:42:46.574Z,99610.59
2019-03-05T17:45:21.925Z,99618.95
2019-03-05T17:47:51.464Z,99624.31
2019-03-05T17:50:21.033Z,99625.81
2019-03-05T17:52:50.626Z,99637.69
2019-03-05T17:55:27.792Z,99639.95
2019-03-05T17:57:57.111Z,99648.72
2019-03-05T18:00:31.296Z,99645.33
2019-03-05T18:03:00.834Z,99651.91
2019-03-05T18:05:30.160Z,99663.32
2019-03-05T18:07:59.812Z,99670.73
2019-03-05T18:10:29.124Z,99665.48
2019-03-05T18:12:58.741Z,99668.00
2019-03-05T18:15:29.281Z,99663.98
2019-03-05T18:17:58.574Z,99676.33
2019-03-05T18:20:27.912Z,99678.80
2019-03-05T18:22:57.220Z,99687.64
2019-03-05T18:25:26.599Z,99684.53
2019-03-05T18:27:56.413Z,99691.66
2019-03-05T18:30:28.701Z,99689.16
2019-03-05T18:33:00.790Z,99695.05
2019-03-05T18:35:30.455Z,99700.38
2019-03-05T18:38:00.047Z,99702.38
2019-03-05T18:40:29.791Z,99707.08
2019-03-05T18:43:02.144Z,99715.50
2019-03-05T18:45:39.822Z,99721.27
2019-03-05T18:48:09.534Z,99722.95
2019-03-05T18:50:38.853Z,99727.58
2019-03-05T18:53:08.542Z,99729.84
2019-03-05T18:55:37.955Z,99735.25
2019-03-05T18:58:07.739Z,99739.70
2019-03-05T19:00:37.861Z,99740.72
2019-03-05T19:03:11.239Z,99744.28
2019-03-05T19:05:41.089Z,99754.50
2019-03-05T19:08:11.160Z,99753.12
2019-03-05T19:10:41.296Z,99761.05
2019-03-05T19:13:10.916Z,99768.37
2019-03-05T19:15:40.554Z,99768.07
2019-03-05T19:18:10.133Z,99778.88
2019-03-05T19:20:39.431Z,99777.80
2019-03-05T19:23:08.745Z,99787.30
2019-03-05T19:25:44.228Z,99793.91
2019-03-05T19:28:14.103Z,99792.75
2019-03-05T19:30:47.622Z,99796.72
2019-03-05T19:33:17.259Z,99801.52
2019-03-05T19:35:46.859Z,99814.73
2019-03-05T19:38:16.440Z,99813.22
2019-03-05T19:40:47.843Z,99817.11
2019-03-05T19:43:17.559Z,99819.66
2019-03-05T19:45:46.871Z,99825.30
2019-03-05T19:48:16.569Z,99829.81
2019-03-05T19:50:46.388Z,99828.78
2019-03-05T19:53:15.991Z,99841.09
2019-03-05T19:55:45.741Z,99846.60
2019-03-05T19:58:15.393Z,99853.81
2019-03-05T20:00:55.956Z,99852.71
2019-03-05T20:03:25.642Z,99867.12
2019-03-05T20:05:55.270Z,99868.30
2019-03-05T20:08:24.569Z,99865.64
2019-03-05T20:10:54.146Z,99870.64
2019-03-05T20:13:23.941Z,99880.59
2019-03-05T20:15:53.303Z,99878.31
2019-03-05T20:18:23.068Z,99879.41
2019-03-05T20:20:53.405Z,99885.52
2019-03-05T20:23:23.372Z,99880.09
2019-03-05T20:25:53.107Z,99874.59
2019-03-05T20:28:22.820Z,99889.01
2019-03-05T20:30:52.424Z,99887.75
2019-03-05T20:33:22.030Z,99887.61
2019-03-05T20:35:51.802Z,99891.38
2019-03-05T20:38:21.549Z,99894.48
2019-03-05T20:40:51.143Z,99897.83
2019-03-05T20:43:20.896Z,99898.31
2019-03-05T20:45:57.630Z,99901.95
2019-03-05T20:48:27.242Z,99897.29
2019-03-05T20:50:56.590Z,99895.95
2019-03-05T20:53:26.214Z,99904.15
2019-03-05T20:55:55.538Z,99905.68
2019-03-05T20:58:25.035Z,99910.55
2019-03-05T21:00:54.672Z,99916.48
2019-03-05T21:03:24.252Z,99914.16
2019-03-05T21:05:54.002Z,99917.92
2019-03-05T21:08:23.590Z,99919.22
2019-03-05T21:10:53.196Z,99922.94
2019-03-05T21:13:22.803Z,99927.89
2019-03-05T21:15:52.131Z,99940.59
2019-03-05T21:18:21.439Z,99929.21
2019-03-05T21:20:50.738Z,99932.74
2019-03-05T21:23:20.134Z,99940.44
2019-03-05T21:25:49.456Z,99936.42
2019-03-05T21:28:19.035Z,99948.44
2019-03-05T21:30:48.361Z,99950.92
2019-03-05T21:33:17.994Z,99947.59
2019-03-05T21:35:47.601Z,99948.80
2019-03-05T21:38:17.165Z,99958.59
2019-03-05T21:40:46.845Z,99959.56
2019-03-05T21:43:16.444Z,99965.53
2019-03-05T21:45:50.791Z,99962.56
2019-03-05T21:48:20.109Z,99962.13
2019-03-05T21:50:49.422Z,99969.92
2019-03-05T21:53:18.750Z,99971.50
2019-03-05T21:55:48.866Z,99976.30
2019-03-05T21:58:18.510Z,99977.02
2019-03-05T22:00:50.461Z,99970.17
2019-03-05T22:03:22.676Z,99977.49
2019-03-05T22:05:52.613Z,99986.09
2019-03-05T22:08:22.671Z,99996.30
2019-03-05T22:10:52.375Z,99996.70
2019-03-05T22:13:21.916Z,100001.86
2019-03-05T22:15:51.603Z,100012.42
2019-03-05T22:18:20.931Z,100020.39
2019-03-05T22:20:50.605Z,100023.08
2019-03-05T22:23:20.347Z,100025.11
2019-03-05T22:25:49.940Z,100030.66
2019-03-05T22:28:19.542Z,100032.16
2019-03-05T22:30:48.968Z,100039.33
2019-03-05T22:33:18.302Z,100038.39
2019-03-05T22:35:47.639Z,100037.70
2019-03-05T22:38:17.263Z,100039.91
2019-03-05T22:40:46.947Z,100039.81
2019-03-05T22:43:16.892Z,100044.46
2019-03-05T22:45:46.589Z,100041.88
2019-03-05T22:48:16.001Z,100048.97
2019-03-05T22:50:46.533Z,100056.41
2019-03-05T22:53:16.248Z,100050.86
2019-03-05T22:55:45.784Z,100053.53
2019-03-05T22:58:15.126Z,100058.30
2019-03-05T23:00:56.720Z,100054.42
2019-03-05T23:03:29.166Z,100055.66
2019-03-05T23:06:00.613Z,100061.53
2019-03-05T23:08:29.896Z,100063.58
2019-03-05T23:13:36.626Z,100071.11
2019-03-05T23:16:06.233Z,100064.45
2019-03-05T23:18:35.811Z,100066.30
2019-03-05T23:21:05.155Z,100072.94
2019-03-05T23:23:34.505Z,100068.50
2019-03-05T23:26:03.983Z,100072.91
2019-03-05T23:28:33.315Z,100073.51
2019-03-05T23:31:02.924Z,100080.66
2019-03-05T23:33:32.252Z,100081.16
2019-03-05T23:36:02.040Z,100078.78
2019-03-05T23:38:31.520Z,100087.64
2019-03-05T23:41:00.849Z,100084.13
2019-03-05T23:43:30.279Z,100087.55
2019-03-05T23:45:59.855Z,100090.40
2019-03-05T23:48:29.423Z,100091.98
2019-03-05T23:50:59.167Z,100094.89
2019-03-05T23:53:28.552Z,100103.58
2019-03-05T23:55:57.859Z,100108.11
2019-03-05T23:58:27.202Z,100105.28
